sensor_id;sensor_type;location;lat;lon;timestamp;temperature;humidity
14049;DHT22;7099;53.922;10.728;2023-07-13T00:00:49;18.20;75.20
14049;DHT22;7099;53.922;10.728;2023-07-13T00:04:55;18.20;75.10
14049;DHT22;7099;53.922;10.728;2023-07-13T00:09:00;18.10;74.90
14049;DHT22;7099;53.922;10.728;2023-07-13T00:13:06;18.20;76.10
14049;DHT22;7099;53.922;10.728;2023-07-13T00:17:11;18.10;76.20
14049;DHT22;7099;53.922;10.728;2023-07-13T00:21:18;18.10;76.60
14049;DHT22;7099;53.922;10.728;2023-07-13T00:25:24;18.10;77.20
14049;DHT22;7099;53.922;10.728;2023-07-13T00:29:31;18.10;77.20
14049;DHT22;7099;53.922;10.728;2023-07-13T00:33:38;18.00;77.00
14049;DHT22;7099;53.922;10.728;2023-07-13T00:37:45;18.00;77.60
14049;DHT22;7099;53.922;10.728;2023-07-13T00:41:51;17.90;77.40
14049;DHT22;7099;53.922;10.728;2023-07-13T00:50:02;17.90;76.90
14049;DHT22;7099;53.922;10.728;2023-07-13T00:54:09;17.80;77.20
14049;DHT22;7099;53.922;10.728;2023-07-13T00:58:16;17.80;77.20
14049;DHT22;7099;53.922;10.728;2023-07-13T01:02:22;17.70;76.50
14049;DHT22;7099;53.922;10.728;2023-07-13T01:06:27;17.70;76.40
14049;DHT22;7099;53.922;10.728;2023-07-13T01:10:33;17.60;76.30
14049;DHT22;7099;53.922;10.728;2023-07-13T01:14:43;17.60;76.60
14049;DHT22;7099;53.922;10.728;2023-07-13T01:18:49;17.60;75.70
14049;DHT22;7099;53.922;10.728;2023-07-13T01:22:54;17.50;75.90
14049;DHT22;7099;53.922;10.728;2023-07-13T01:26:59;17.40;76.10
14049;DHT22;7099;53.922;10.728;2023-07-13T01:31:05;17.40;75.40
14049;DHT22;7099;53.922;10.728;2023-07-13T01:35:10;17.20;75.20
14049;DHT22;7099;53.922;10.728;2023-07-13T01:39:17;17.20;75.70
14049;DHT22;7099;53.922;10.728;2023-07-13T01:43:23;17.10;75.80
14049;DHT22;7099;53.922;10.728;2023-07-13T01:47:28;17.00;75.70
14049;DHT22;7099;53.922;10.728;2023-07-13T01:51:35;17.00;76.60
14049;DHT22;7099;53.922;10.728;2023-07-13T01:55:41;16.90;75.90
14049;DHT22;7099;53.922;10.728;2023-07-13T01:59:46;16.80;76.00
14049;DHT22;7099;53.922;10.728;2023-07-13T02:03:51;16.80;76.00
14049;DHT22;7099;53.922;10.728;2023-07-13T02:07:57;16.70;75.80
14049;DHT22;7099;53.922;10.728;2023-07-13T02:12:03;16.60;75.60
14049;DHT22;7099;53.922;10.728;2023-07-13T02:16:09;16.50;76.00
14049;DHT22;7099;53.922;10.728;2023-07-13T02:20:15;16.50;74.00
14049;DHT22;7099;53.922;10.728;2023-07-13T02:24:20;16.40;74.40
14049;DHT22;7099;53.922;10.728;2023-07-13T02:28:26;16.40;75.00
14049;DHT22;7099;53.922;10.728;2023-07-13T02:32:31;16.30;75.20
14049;DHT22;7099;53.922;10.728;2023-07-13T02:36:37;16.30;75.70
14049;DHT22;7099;53.922;10.728;2023-07-13T02:40:42;16.20;75.80
14049;DHT22;7099;53.922;10.728;2023-07-13T02:44:48;16.20;76.50
14049;DHT22;7099;53.922;10.728;2023-07-13T02:48:56;16.20;76.10
14049;DHT22;7099;53.922;10.728;2023-07-13T02:53:01;16.10;76.30
14049;DHT22;7099;53.922;10.728;2023-07-13T02:57:07;16.10;76.40
14049;DHT22;7099;53.922;10.728;2023-07-13T03:01:12;16.10;76.20
14049;DHT22;7099;53.922;10.728;2023-07-13T03:05:18;16.00;76.60
14049;DHT22;7099;53.922;10.728;2023-07-13T03:09:24;16.00;76.60
14049;DHT22;7099;53.922;10.728;2023-07-13T03:13:30;16.00;76.90
14049;DHT22;7099;53.922;10.728;2023-07-13T03:17:36;15.90;77.00
14049;DHT22;7099;53.922;10.728;2023-07-13T03:21:41;15.90;77.20
14049;DHT22;7099;53.922;10.728;2023-07-13T03:25:47;15.90;77.50
14049;DHT22;7099;53.922;10.728;2023-07-13T03:29:53;15.90;77.50
14049;DHT22;7099;53.922;10.728;2023-07-13T03:33:59;15.90;77.80
14049;DHT22;7099;53.922;10.728;2023-07-13T03:38:04;15.90;78.10
14049;DHT22;7099;53.922;10.728;2023-07-13T03:42:10;15.90;78.30
14049;DHT22;7099;53.922;10.728;2023-07-13T03:46:16;15.90;79.00
14049;DHT22;7099;53.922;10.728;2023-07-13T03:50:22;15.90;78.70
14049;DHT22;7099;53.922;10.728;2023-07-13T03:54:28;15.90;78.90
14049;DHT22;7099;53.922;10.728;2023-07-13T03:58:38;15.90;79.20
14049;DHT22;7099;53.922;10.728;2023-07-13T04:02:45;16.00;79.60
14049;DHT22;7099;53.922;10.728;2023-07-13T04:06:52;16.00;79.50
14049;DHT22;7099;53.922;10.728;2023-07-13T04:10:58;16.10;79.80
14049;DHT22;7099;53.922;10.728;2023-07-13T04:15:04;16.10;80.50
14049;DHT22;7099;53.922;10.728;2023-07-13T04:19:10;16.10;80.60
14049;DHT22;7099;53.922;10.728;2023-07-13T04:23:17;16.20;80.70
14049;DHT22;7099;53.922;10.728;2023-07-13T04:27:22;16.20;80.80
14049;DHT22;7099;53.922;10.728;2023-07-13T04:31:30;16.30;81.00
14049;DHT22;7099;53.922;10.728;2023-07-13T04:35:37;16.40;80.70
14049;DHT22;7099;53.922;10.728;2023-07-13T04:39:42;16.50;80.80
14049;DHT22;7099;53.922;10.728;2023-07-13T04:43:48;16.50;80.70
14049;DHT22;7099;53.922;10.728;2023-07-13T04:47:54;16.60;81.30
14049;DHT22;7099;53.922;10.728;2023-07-13T04:51:59;16.70;80.70
14049;DHT22;7099;53.922;10.728;2023-07-13T04:56:05;16.80;80.80
14049;DHT22;7099;53.922;10.728;2023-07-13T05:00:11;16.80;80.10
14049;DHT22;7099;53.922;10.728;2023-07-13T05:04:18;16.90;79.90
14049;DHT22;7099;53.922;10.728;2023-07-13T05:08:23;17.00;79.80
14049;DHT22;7099;53.922;10.728;2023-07-13T05:12:29;17.10;79.50
14049;DHT22;7099;53.922;10.728;2023-07-13T05:16:35;17.10;78.90
14049;DHT22;7099;53.922;10.728;2023-07-13T05:20:41;17.20;78.50
14049;DHT22;7099;53.922;10.728;2023-07-13T05:24:46;17.30;78.20
14049;DHT22;7099;53.922;10.728;2023-07-13T05:28:52;17.40;77.30
14049;DHT22;7099;53.922;10.728;2023-07-13T05:32:58;17.50;76.70
14049;DHT22;7099;53.922;10.728;2023-07-13T05:37:03;17.50;76.20
14049;DHT22;7099;53.922;10.728;2023-07-13T05:41:09;17.60;75.90
14049;DHT22;7099;53.922;10.728;2023-07-13T05:45:15;17.60;75.50
14049;DHT22;7099;53.922;10.728;2023-07-13T05:49:21;17.70;75.00
14049;DHT22;7099;53.922;10.728;2023-07-13T05:53:26;17.80;74.60
14049;DHT22;7099;53.922;10.728;2023-07-13T05:57:32;17.90;74.00
14049;DHT22;7099;53.922;10.728;2023-07-13T06:01:37;17.90;74.00
14049;DHT22;7099;53.922;10.728;2023-07-13T06:05:43;18.10;73.80
14049;DHT22;7099;53.922;10.728;2023-07-13T06:09:48;18.10;73.50
14049;DHT22;7099;53.922;10.728;2023-07-13T06:13:54;18.30;73.80
14049;DHT22;7099;53.922;10.728;2023-07-13T06:17:59;18.30;73.60
14049;DHT22;7099;53.922;10.728;2023-07-13T06:22:05;18.40;73.40
14049;DHT22;7099;53.922;10.728;2023-07-13T06:26:11;18.60;73.70
14049;DHT22;7099;53.922;10.728;2023-07-13T06:30:16;18.80;73.60
14049;DHT22;7099;53.922;10.728;2023-07-13T06:34:22;18.90;73.20
14049;DHT22;7099;53.922;10.728;2023-07-13T06:38:27;19.10;72.80
14049;DHT22;7099;53.922;10.728;2023-07-13T06:42:33;19.20;72.30
14049;DHT22;7099;53.922;10.728;2023-07-13T06:46:38;19.40;73.40
14049;DHT22;7099;53.922;10.728;2023-07-13T06:50:43;19.60;71.90
14049;DHT22;7099;53.922;10.728;2023-07-13T06:54:49;19.70;72.10
14049;DHT22;7099;53.922;10.728;2023-07-13T06:58:54;19.70;71.30
14049;DHT22;7099;53.922;10.728;2023-07-13T07:03:00;19.80;71.80
14049;DHT22;7099;53.922;10.728;2023-07-13T07:07:05;19.90;71.00
14049;DHT22;7099;53.922;10.728;2023-07-13T07:11:16;19.90;72.10
14049;DHT22;7099;53.922;10.728;2023-07-13T07:15:22;20.00;71.80
14049;DHT22;7099;53.922;10.728;2023-07-13T07:19:29;20.10;71.20
14049;DHT22;7099;53.922;10.728;2023-07-13T07:23:35;20.10;71.30
14049;DHT22;7099;53.922;10.728;2023-07-13T07:27:40;20.10;71.20
14049;DHT22;7099;53.922;10.728;2023-07-13T07:31:49;20.20;71.20
14049;DHT22;7099;53.922;10.728;2023-07-13T07:36:09;20.20;71.40
14049;DHT22;7099;53.922;10.728;2023-07-13T07:40:19;20.30;71.40
14049;DHT22;7099;53.922;10.728;2023-07-13T07:44:27;20.40;71.20
14049;DHT22;7099;53.922;10.728;2023-07-13T07:48:33;20.50;70.20
14049;DHT22;7099;53.922;10.728;2023-07-13T07:52:39;20.70;70.30
14049;DHT22;7099;53.922;10.728;2023-07-13T07:56:45;20.70;69.60
14049;DHT22;7099;53.922;10.728;2023-07-13T08:01:10;20.80;69.00
14049;DHT22;7099;53.922;10.728;2023-07-13T08:05:18;20.90;68.40
14049;DHT22;7099;53.922;10.728;2023-07-13T08:09:44;20.90;68.60
14049;DHT22;7099;53.922;10.728;2023-07-13T08:13:50;21.00;67.90
14049;DHT22;7099;53.922;10.728;2023-07-13T08:17:59;21.10;67.10
14049;DHT22;7099;53.922;10.728;2023-07-13T08:22:04;21.20;66.90
14049;DHT22;7099;53.922;10.728;2023-07-13T08:26:10;21.30;66.10
14049;DHT22;7099;53.922;10.728;2023-07-13T08:30:15;21.40;65.40
14049;DHT22;7099;53.922;10.728;2023-07-13T08:34:22;21.40;65.00
14049;DHT22;7099;53.922;10.728;2023-07-13T08:38:27;21.60;64.60
14049;DHT22;7099;53.922;10.728;2023-07-13T08:42:40;21.70;64.50
14049;DHT22;7099;53.922;10.728;2023-07-13T08:46:49;21.90;62.30
14049;DHT22;7099;53.922;10.728;2023-07-13T08:55:42;22.30;60.90
14049;DHT22;7099;53.922;10.728;2023-07-13T08:59:48;22.50;62.40
14049;DHT22;7099;53.922;10.728;2023-07-13T09:04:01;22.70;61.30
14049;DHT22;7099;53.922;10.728;2023-07-13T09:13:39;22.90;61.90
14049;DHT22;7099;53.922;10.728;2023-07-13T09:18:15;23.10;61.20
14049;DHT22;7099;53.922;10.728;2023-07-13T09:22:26;23.30;59.30
14049;DHT22;7099;53.922;10.728;2023-07-13T09:26:33;23.40;58.90
14049;DHT22;7099;53.922;10.728;2023-07-13T09:30:53;23.60;59.00
14049;DHT22;7099;53.922;10.728;2023-07-13T09:35:10;23.70;58.50
14049;DHT22;7099;53.922;10.728;2023-07-13T09:43:37;23.90;54.90
14049;DHT22;7099;53.922;10.728;2023-07-13T09:47:43;23.90;56.10
14049;DHT22;7099;53.922;10.728;2023-07-13T09:52:01;23.70;56.50
14049;DHT22;7099;53.922;10.728;2023-07-13T09:56:22;23.70;57.10
14049;DHT22;7099;53.922;10.728;2023-07-13T10:00:30;23.80;56.00
14049;DHT22;7099;53.922;10.728;2023-07-13T10:04:36;23.90;56.70
14049;DHT22;7099;53.922;10.728;2023-07-13T10:08:43;23.80;55.60
14049;DHT22;7099;53.922;10.728;2023-07-13T10:12:50;23.60;55.80
14049;DHT22;7099;53.922;10.728;2023-07-13T10:17:00;23.60;56.40
14049;DHT22;7099;53.922;10.728;2023-07-13T10:21:14;23.40;55.80
14049;DHT22;7099;53.922;10.728;2023-07-13T10:25:27;23.30;56.30
14049;DHT22;7099;53.922;10.728;2023-07-13T10:29:40;23.20;56.70
14049;DHT22;7099;53.922;10.728;2023-07-13T10:33:50;23.30;58.00
14049;DHT22;7099;53.922;10.728;2023-07-13T10:38:06;23.50;58.20
14049;DHT22;7099;53.922;10.728;2023-07-13T10:42:25;23.70;56.70
14049;DHT22;7099;53.922;10.728;2023-07-13T10:46:33;23.90;54.80
14049;DHT22;7099;53.922;10.728;2023-07-13T10:50:40;24.10;56.30
14049;DHT22;7099;53.922;10.728;2023-07-13T10:54:48;24.30;53.40
14049;DHT22;7099;53.922;10.728;2023-07-13T11:03:16;24.80;50.80
14049;DHT22;7099;53.922;10.728;2023-07-13T11:07:29;24.90;50.70
14049;DHT22;7099;53.922;10.728;2023-07-13T11:11:38;24.90;48.50
14049;DHT22;7099;53.922;10.728;2023-07-13T11:15:48;24.90;48.00
14049;DHT22;7099;53.922;10.728;2023-07-13T11:19:54;24.90;48.00
14049;DHT22;7099;53.922;10.728;2023-07-13T11:24:17;24.80;48.10
14049;DHT22;7099;53.922;10.728;2023-07-13T11:28:25;24.20;49.50
14049;DHT22;7099;53.922;10.728;2023-07-13T11:32:32;23.50;51.20
14049;DHT22;7099;53.922;10.728;2023-07-13T11:36:39;23.20;52.00
14049;DHT22;7099;53.922;10.728;2023-07-13T11:40:51;23.00;52.70
14049;DHT22;7099;53.922;10.728;2023-07-13T11:45:00;22.80;53.90
14049;DHT22;7099;53.922;10.728;2023-07-13T11:49:44;22.70;54.60
14049;DHT22;7099;53.922;10.728;2023-07-13T11:53:55;22.60;56.10
14049;DHT22;7099;53.922;10.728;2023-07-13T11:58:02;22.60;56.80
14049;DHT22;7099;53.922;10.728;2023-07-13T12:02:17;22.60;57.40
14049;DHT22;7099;53.922;10.728;2023-07-13T12:06:30;22.50;58.50
14049;DHT22;7099;53.922;10.728;2023-07-13T12:10:36;22.50;58.40
14049;DHT22;7099;53.922;10.728;2023-07-13T12:14:42;22.50;58.40
14049;DHT22;7099;53.922;10.728;2023-07-13T12:18:48;22.50;58.00
14049;DHT22;7099;53.922;10.728;2023-07-13T12:22:54;22.60;57.70
14049;DHT22;7099;53.922;10.728;2023-07-13T12:27:02;22.80;56.90
14049;DHT22;7099;53.922;10.728;2023-07-13T12:31:31;22.80;54.70
14049;DHT22;7099;53.922;10.728;2023-07-13T12:35:56;22.80;54.80
14049;DHT22;7099;53.922;10.728;2023-07-13T12:40:03;22.70;54.40
14049;DHT22;7099;53.922;10.728;2023-07-13T12:44:16;22.70;55.70
14049;DHT22;7099;53.922;10.728;2023-07-13T12:48:24;22.60;55.40
14049;DHT22;7099;53.922;10.728;2023-07-13T12:52:54;22.60;56.50
14049;DHT22;7099;53.922;10.728;2023-07-13T12:57:03;22.60;55.90
14049;DHT22;7099;53.922;10.728;2023-07-13T13:01:11;22.60;56.40
14049;DHT22;7099;53.922;10.728;2023-07-13T13:05:19;22.40;56.90
14049;DHT22;7099;53.922;10.728;2023-07-13T13:09:28;22.30;57.30
14049;DHT22;7099;53.922;10.728;2023-07-13T13:13:34;22.10;58.50
14049;DHT22;7099;53.922;10.728;2023-07-13T13:17:40;21.90;60.30
14049;DHT22;7099;53.922;10.728;2023-07-13T13:21:46;21.70;61.80
14049;DHT22;7099;53.922;10.728;2023-07-13T13:25:51;21.50;63.00
14049;DHT22;7099;53.922;10.728;2023-07-13T13:29:57;21.40;63.90
14049;DHT22;7099;53.922;10.728;2023-07-13T13:34:11;21.20;64.60
14049;DHT22;7099;53.922;10.728;2023-07-13T13:38:22;21.00;65.70
14049;DHT22;7099;53.922;10.728;2023-07-13T13:42:30;20.80;66.30
14049;DHT22;7099;53.922;10.728;2023-07-13T13:46:36;20.70;66.50
14049;DHT22;7099;53.922;10.728;2023-07-13T13:50:42;20.60;67.80
14049;DHT22;7099;53.922;10.728;2023-07-13T13:54:47;20.70;68.90
14049;DHT22;7099;53.922;10.728;2023-07-13T13:58:53;20.80;68.50
14049;DHT22;7099;53.922;10.728;2023-07-13T14:02:58;20.70;68.70
14049;DHT22;7099;53.922;10.728;2023-07-13T14:07:04;20.60;69.50
14049;DHT22;7099;53.922;10.728;2023-07-13T14:11:15;20.50;69.20
14049;DHT22;7099;53.922;10.728;2023-07-13T14:15:23;20.50;70.30
14049;DHT22;7099;53.922;10.728;2023-07-13T14:19:31;20.40;70.50
14049;DHT22;7099;53.922;10.728;2023-07-13T14:23:36;20.50;71.10
14049;DHT22;7099;53.922;10.728;2023-07-13T14:27:45;20.50;72.00
14049;DHT22;7099;53.922;10.728;2023-07-13T14:31:58;20.60;72.40
14049;DHT22;7099;53.922;10.728;2023-07-13T14:36:21;20.80;72.90
14049;DHT22;7099;53.922;10.728;2023-07-13T14:40:32;21.00;72.80
14049;DHT22;7099;53.922;10.728;2023-07-13T14:44:38;21.20;72.10
14049;DHT22;7099;53.922;10.728;2023-07-13T14:48:45;21.40;72.50
14049;DHT22;7099;53.922;10.728;2023-07-13T14:52:51;21.50;71.80
14049;DHT22;7099;53.922;10.728;2023-07-13T14:56:57;21.50;71.10
14049;DHT22;7099;53.922;10.728;2023-07-13T15:01:02;21.50;70.70
14049;DHT22;7099;53.922;10.728;2023-07-13T15:05:20;21.40;70.80
14049;DHT22;7099;53.922;10.728;2023-07-13T15:09:28;21.30;71.00
14049;DHT22;7099;53.922;10.728;2023-07-13T15:13:34;21.30;71.00
14049;DHT22;7099;53.922;10.728;2023-07-13T15:17:42;21.40;70.40
14049;DHT22;7099;53.922;10.728;2023-07-13T15:21:49;21.60;69.80
14049;DHT22;7099;53.922;10.728;2023-07-13T15:25:55;21.50;69.70
14049;DHT22;7099;53.922;10.728;2023-07-13T15:30:00;21.40;67.70
14049;DHT22;7099;53.922;10.728;2023-07-13T15:34:14;21.30;66.10
14049;DHT22;7099;53.922;10.728;2023-07-13T15:38:25;21.30;64.00
14049;DHT22;7099;53.922;10.728;2023-07-13T15:42:32;21.30;62.20
14049;DHT22;7099;53.922;10.728;2023-07-13T15:46:38;21.60;62.20
14049;DHT22;7099;53.922;10.728;2023-07-13T15:50:51;22.10;59.60
14049;DHT22;7099;53.922;10.728;2023-07-13T15:54:59;22.60;57.40
14049;DHT22;7099;53.922;10.728;2023-07-13T15:59:09;23.00;57.20
14049;DHT22;7099;53.922;10.728;2023-07-13T16:03:18;23.20;54.60
14049;DHT22;7099;53.922;10.728;2023-07-13T16:07:27;23.50;54.90
14049;DHT22;7099;53.922;10.728;2023-07-13T16:11:34;23.60;54.20
14049;DHT22;7099;53.922;10.728;2023-07-13T16:15:41;23.40;54.30
14049;DHT22;7099;53.922;10.728;2023-07-13T16:19:49;23.30;54.60
14049;DHT22;7099;53.922;10.728;2023-07-13T16:23:55;23.40;53.60
14049;DHT22;7099;53.922;10.728;2023-07-13T16:28:10;23.60;53.20
14049;DHT22;7099;53.922;10.728;2023-07-13T16:32:17;23.90;52.60
14049;DHT22;7099;53.922;10.728;2023-07-13T16:36:22;23.90;52.30
14049;DHT22;7099;53.922;10.728;2023-07-13T16:40:31;24.20;51.10
14049;DHT22;7099;53.922;10.728;2023-07-13T16:44:37;24.10;51.20
14049;DHT22;7099;53.922;10.728;2023-07-13T16:48:44;24.20;51.40
14049;DHT22;7099;53.922;10.728;2023-07-13T16:52:51;24.20;51.80
14049;DHT22;7099;53.922;10.728;2023-07-13T16:56:59;24.30;50.90
14049;DHT22;7099;53.922;10.728;2023-07-13T17:01:06;24.40;51.50
14049;DHT22;7099;53.922;10.728;2023-07-13T17:05:12;24.30;50.40
14049;DHT22;7099;53.922;10.728;2023-07-13T17:09:19;24.10;50.30
14049;DHT22;7099;53.922;10.728;2023-07-13T17:13:28;24.00;51.00
14049;DHT22;7099;53.922;10.728;2023-07-13T17:17:36;24.20;49.50
14049;DHT22;7099;53.922;10.728;2023-07-13T17:21:47;24.20;49.50
14049;DHT22;7099;53.922;10.728;2023-07-13T17:25:54;24.20;48.20
14049;DHT22;7099;53.922;10.728;2023-07-13T17:29:59;24.20;48.10
14049;DHT22;7099;53.922;10.728;2023-07-13T17:34:14;24.20;48.00
14049;DHT22;7099;53.922;10.728;2023-07-13T17:38:29;24.10;48.40
14049;DHT22;7099;53.922;10.728;2023-07-13T17:42:37;24.30;48.30
14049;DHT22;7099;53.922;10.728;2023-07-13T17:46:44;24.50;48.80
14049;DHT22;7099;53.922;10.728;2023-07-13T17:50:51;24.60;48.30
14049;DHT22;7099;53.922;10.728;2023-07-13T17:55:13;24.50;48.30
14049;DHT22;7099;53.922;10.728;2023-07-13T17:59:19;24.40;47.60
14049;DHT22;7099;53.922;10.728;2023-07-13T18:03:26;24.40;48.10
14049;DHT22;7099;53.922;10.728;2023-07-13T18:07:39;24.30;48.10
14049;DHT22;7099;53.922;10.728;2023-07-13T18:11:45;24.10;49.10
14049;DHT22;7099;53.922;10.728;2023-07-13T18:15:51;24.00;49.10
14049;DHT22;7099;53.922;10.728;2023-07-13T18:19:58;24.00;49.20
14049;DHT22;7099;53.922;10.728;2023-07-13T18:24:04;23.80;49.30
14049;DHT22;7099;53.922;10.728;2023-07-13T18:28:11;23.60;49.90
14049;DHT22;7099;53.922;10.728;2023-07-13T18:32:19;23.40;50.10
14049;DHT22;7099;53.922;10.728;2023-07-13T18:36:26;23.20;50.60
14049;DHT22;7099;53.922;10.728;2023-07-13T18:40:31;23.10;50.70
14049;DHT22;7099;53.922;10.728;2023-07-13T18:44:39;22.90;51.50
14049;DHT22;7099;53.922;10.728;2023-07-13T18:48:45;22.70;51.70
14049;DHT22;7099;53.922;10.728;2023-07-13T18:52:51;22.50;51.90
14049;DHT22;7099;53.922;10.728;2023-07-13T18:56:57;22.40;52.40
14049;DHT22;7099;53.922;10.728;2023-07-13T19:01:02;22.20;52.50
14049;DHT22;7099;53.922;10.728;2023-07-13T19:05:16;22.10;53.00
14049;DHT22;7099;53.922;10.728;2023-07-13T19:09:26;21.90;53.30
14049;DHT22;7099;53.922;10.728;2023-07-13T19:13:34;21.80;53.70
14049;DHT22;7099;53.922;10.728;2023-07-13T19:17:41;21.60;54.10
14049;DHT22;7099;53.922;10.728;2023-07-13T19:21:49;21.50;54.30
14049;DHT22;7099;53.922;10.728;2023-07-13T19:26:01;21.30;54.60
14049;DHT22;7099;53.922;10.728;2023-07-13T19:30:23;21.20;54.90
14049;DHT22;7099;53.922;10.728;2023-07-13T19:34:29;21.00;55.10
14049;DHT22;7099;53.922;10.728;2023-07-13T19:38:34;20.90;55.40
14049;DHT22;7099;53.922;10.728;2023-07-13T19:42:40;20.80;55.80
14049;DHT22;7099;53.922;10.728;2023-07-13T19:46:45;20.70;56.20
14049;DHT22;7099;53.922;10.728;2023-07-13T19:50:51;20.50;56.60
14049;DHT22;7099;53.922;10.728;2023-07-13T19:54:58;20.50;56.90
14049;DHT22;7099;53.922;10.728;2023-07-13T19:59:27;20.30;57.30
14049;DHT22;7099;53.922;10.728;2023-07-13T20:03:34;20.20;57.80
14049;DHT22;7099;53.922;10.728;2023-07-13T20:07:40;20.10;57.90
14049;DHT22;7099;53.922;10.728;2023-07-13T20:11:47;20.00;58.10
14049;DHT22;7099;53.922;10.728;2023-07-13T20:15:53;19.80;58.40
14049;DHT22;7099;53.922;10.728;2023-07-13T20:20:00;19.70;58.60
14049;DHT22;7099;53.922;10.728;2023-07-13T20:24:15;19.60;59.00
14049;DHT22;7099;53.922;10.728;2023-07-13T20:28:22;19.50;59.30
14049;DHT22;7099;53.922;10.728;2023-07-13T20:32:29;19.40;59.50
14049;DHT22;7099;53.922;10.728;2023-07-13T20:36:42;19.20;59.90
14049;DHT22;7099;53.922;10.728;2023-07-13T20:40:49;19.10;60.90
14049;DHT22;7099;53.922;10.728;2023-07-13T20:44:58;19.40;60.20
14049;DHT22;7099;53.922;10.728;2023-07-13T20:49:03;19.10;60.80
14049;DHT22;7099;53.922;10.728;2023-07-13T20:53:09;18.90;62.00
14049;DHT22;7099;53.922;10.728;2023-07-13T20:57:16;18.70;61.80
14049;DHT22;7099;53.922;10.728;2023-07-13T21:01:32;18.60;62.20
14049;DHT22;7099;53.922;10.728;2023-07-13T21:05:40;18.50;63.00
14049;DHT22;7099;53.922;10.728;2023-07-13T21:09:47;18.40;63.20
14049;DHT22;7099;53.922;10.728;2023-07-13T21:13:54;18.30;63.40
14049;DHT22;7099;53.922;10.728;2023-07-13T21:18:01;18.20;63.90
14049;DHT22;7099;53.922;10.728;2023-07-13T21:22:12;18.20;64.30
14049;DHT22;7099;53.922;10.728;2023-07-13T21:26:20;18.10;64.80
14049;DHT22;7099;53.922;10.728;2023-07-13T21:30:44;18.00;64.90
14049;DHT22;7099;53.922;10.728;2023-07-13T21:34:49;18.00;65.50
14049;DHT22;7099;53.922;10.728;2023-07-13T21:39:01;17.90;65.30
14049;DHT22;7099;53.922;10.728;2023-07-13T21:43:12;17.80;65.70
14049;DHT22;7099;53.922;10.728;2023-07-13T21:47:18;17.70;66.10
14049;DHT22;7099;53.922;10.728;2023-07-13T21:51:26;17.60;66.30
14049;DHT22;7099;53.922;10.728;2023-07-13T21:55:32;17.60;66.70
14049;DHT22;7099;53.922;10.728;2023-07-13T21:59:37;17.50;67.10
14049;DHT22;7099;53.922;10.728;2023-07-13T22:03:44;17.40;67.60
14049;DHT22;7099;53.922;10.728;2023-07-13T22:07:50;17.40;67.70
14049;DHT22;7099;53.922;10.728;2023-07-13T22:11:56;17.30;67.90
14049;DHT22;7099;53.922;10.728;2023-07-13T22:16:02;17.20;68.20
14049;DHT22;7099;53.922;10.728;2023-07-13T22:24:23;17.10;69.30
14049;DHT22;7099;53.922;10.728;2023-07-13T22:28:29;17.10;70.40
14049;DHT22;7099;53.922;10.728;2023-07-13T22:32:35;17.00;71.40
14049;DHT22;7099;53.922;10.728;2023-07-13T22:36:40;16.90;71.80
14049;DHT22;7099;53.922;10.728;2023-07-13T22:40:46;16.80;72.20
14049;DHT22;7099;53.922;10.728;2023-07-13T22:44:52;16.70;72.80
14049;DHT22;7099;53.922;10.728;2023-07-13T22:48:58;16.70;73.00
14049;DHT22;7099;53.922;10.728;2023-07-13T22:53:21;16.60;73.10
14049;DHT22;7099;53.922;10.728;2023-07-13T22:57:30;16.60;73.90
14049;DHT22;7099;53.922;10.728;2023-07-13T23:01:36;16.50;74.20
14049;DHT22;7099;53.922;10.728;2023-07-13T23:05:43;16.50;74.50
14049;DHT22;7099;53.922;10.728;2023-07-13T23:09:48;16.40;75.20
14049;DHT22;7099;53.922;10.728;2023-07-13T23:14:12;16.40;75.70
14049;DHT22;7099;53.922;10.728;2023-07-13T23:18:17;16.30;75.80
14049;DHT22;7099;53.922;10.728;2023-07-13T23:22:25;16.30;76.00
14049;DHT22;7099;53.922;10.728;2023-07-13T23:26:31;16.30;75.80
14049;DHT22;7099;53.922;10.728;2023-07-13T23:30:36;16.30;75.80
14049;DHT22;7099;53.922;10.728;2023-07-13T23:34:43;16.30;76.40
14049;DHT22;7099;53.922;10.728;2023-07-13T23:38:48;16.20;77.00
14049;DHT22;7099;53.922;10.728;2023-07-13T23:42:54;16.20;76.60
14049;DHT22;7099;53.922;10.728;2023-07-13T23:46:59;16.20;76.80
14049;DHT22;7099;53.922;10.728;2023-07-13T23:51:06;16.20;76.70
14049;DHT22;7099;53.922;10.728;2023-07-13T23:55:23;16.10;73.40
14049;DHT22;7099;53.922;10.728;2023-07-13T23:59:30;16.50;76.60
